Assembly Point, NY

10:41 AM EDT on April 21, 2015 (GMT -0400)
APRSWXNET | | Change Station
CLOSE
Current Station
Personal Weather Station
Location: Lake George, NY
Elevation: 935 ft
Nearby Weather Stations

Elev 935 ft 43.39 °N, 73.73 °W | Updated 48 minutes ago

Rain
Rain
46 °F
Feels Like 42 °F
N
8
Wind Variable Wind from NNE
Gusts 0.0 mph

Today
High -- | Low -- °F
--% Chance of Precip.
Yesterday
High -- | Low -- °F
Precip. -- in
6:03 AM 7:44 PM
Waxing Crescent, 11% visible
Pressure 29.59 in
Visibility 5.0 miles
Clouds Mostly Cloudy 2300 ft
Mostly Cloudy 2800 ft
Overcast 3500 ft
Windchill 42 °F
Dew Point 45 °F
Humidity 95%
Rainfall in
Snow Depth Not available.
UV 2 out of 12
Pollen 3.50 out of 12
Air Quality Not available.
Flu Activity Widespread
METAR KGFL 211353Z AUTO 23005KT 5SM -RA BR BKN023 BKN028 OVC035 11/08 A2958 RMK AO2 RAB19 SLP019 P0001 T01060083 $

More Conditions Fewer Conditions

Pressure 29.59 in
Visibility 5.0 miles
Clouds Mostly Cloudy 2300 ft
Mostly Cloudy 2800 ft
Overcast 3500 ft
Windchill 42 °F
Dew Point 45 °F
Humidity 95%
Rainfall in
Snow Depth Not available.
UV 2 out of 12
Pollen 3.50 out of 12
Air Quality Not available.
Flu Activity Widespread
METAR KGFL 211353Z AUTO 23005KT 5SM -RA BR BKN023 BKN028 OVC035 11/08 A2958 RMK AO2 RAB19 SLP019 P0001 T01060083 $

More Conditions Fewer Conditions

10-Day Weather Forecast

Almanac

Astronomy

Apr. 21, 2015 Rise Set
Actual Time
Civil Twilight
Nautical Twilight
Astronomical Twilight
Moon
Length of Visible Light
Length of Day
Tomorrow will be .
, % of the Moon is Illuminated

Today's Extremes

State Highs State Lows

Community

WunderPhotos

Upload Photos

1,815,413 photos uploaded!

WunderBlogs® & News

Nearby

Air Quality

  Air Quality AQ Index Pollutant
Not available.

Snow Depth

Station Depth Elevation

Earthquake Activity

City Distance Mag. Time & Date
Minimum magnitude displayed is 2.5.

Coastal Water Temperatures

Place Temperature

Stations

Nearby Weather Stations

Station Location Temp. Windchill Dew Point Humidity Wind Precip. Elev Updated Type